sensor_id;sensor_type;location;lat;lon;timestamp;pressure;altitude;pressure_sealevel;temperature;humidity
70198;BME280;57582;-34.876;138.628;2024-03-29T00:00:01;101705;;;24.83;30.62
70198;BME280;57582;-34.876;138.628;2024-03-29T00:03:01;101698;;;25.00;30.84
70198;BME280;57582;-34.876;138.628;2024-03-29T00:06:01;101698;;;25.07;29.58
70198;BME280;57582;-34.876;138.628;2024-03-29T00:09:01;101709;;;25.17;29.01
70198;BME280;57582;-34.876;138.628;2024-03-29T00:12:01;101704;;;25.47;28.93
70198;BME280;57582;-34.876;138.628;2024-03-29T00:15:01;101707;;;25.49;28.42
70198;BME280;57582;-34.876;138.628;2024-03-29T00:18:01;101707;;;25.60;28.06
70198;BME280;57582;-34.876;138.628;2024-03-29T00:21:01;101709;;;25.90;27.45
70198;BME280;57582;-34.876;138.628;2024-03-29T00:24:01;101706;;;26.01;27.03
70198;BME280;57582;-34.876;138.628;2024-03-29T00:27:01;101704;;;26.08;27.00
70198;BME280;57582;-34.876;138.628;2024-03-29T00:30:01;101699;;;26.10;26.76
70198;BME280;57582;-34.876;138.628;2024-03-29T00:33:01;101699;;;26.25;26.28
70198;BME280;57582;-34.876;138.628;2024-03-29T00:36:01;101702;;;26.42;26.84
70198;BME280;57582;-34.876;138.628;2024-03-29T00:39:01;101693;;;26.63;26.01
70198;BME280;57582;-34.876;138.628;2024-03-29T00:42:01;101684;;;26.76;25.53
70198;BME280;57582;-34.876;138.628;2024-03-29T00:45:01;101681;;;26.94;25.14
70198;BME280;57582;-34.876;138.628;2024-03-29T00:48:01;101676;;;26.98;25.21
70198;BME280;57582;-34.876;138.628;2024-03-29T00:51:01;101675;;;27.04;25.07
70198;BME280;57582;-34.876;138.628;2024-03-29T00:54:01;101680;;;27.12;24.03
70198;BME280;57582;-34.876;138.628;2024-03-29T00:57:01;101664;;;27.34;24.90
70198;BME280;57582;-34.876;138.628;2024-03-29T01:00:01;101662;;;27.59;23.86
70198;BME280;57582;-34.876;138.628;2024-03-29T01:03:01;101662;;;27.94;23.58
70198;BME280;57582;-34.876;138.628;2024-03-29T01:06:01;101663;;;28.05;23.91
70198;BME280;57582;-34.876;138.628;2024-03-29T01:09:01;101658;;;28.10;23.07
70198;BME280;57582;-34.876;138.628;2024-03-29T01:12:01;101654;;;28.09;23.35
70198;BME280;57582;-34.876;138.628;2024-03-29T01:15:01;101658;;;28.29;22.94
70198;BME280;57582;-34.876;138.628;2024-03-29T01:18:01;101655;;;28.38;23.40
70198;BME280;57582;-34.876;138.628;2024-03-29T01:21:01;101664;;;28.24;23.11
70198;BME280;57582;-34.876;138.628;2024-03-29T01:24:01;101660;;;28.32;23.56
70198;BME280;57582;-34.876;138.628;2024-03-29T01:27:01;101649;;;28.48;23.75
70198;BME280;57582;-34.876;138.628;2024-03-29T01:30:01;101648;;;28.68;22.77
70198;BME280;57582;-34.876;138.628;2024-03-29T01:33:01;101653;;;28.75;23.29
70198;BME280;57582;-34.876;138.628;2024-03-29T01:36:01;101646;;;28.90;22.75
70198;BME280;57582;-34.876;138.628;2024-03-29T01:39:01;101638;;;28.97;21.97
70198;BME280;57582;-34.876;138.628;2024-03-29T01:42:01;101630;;;28.89;23.47
70198;BME280;57582;-34.876;138.628;2024-03-29T01:45:01;101628;;;29.16;23.19
70198;BME280;57582;-34.876;138.628;2024-03-29T01:48:01;101631;;;29.46;22.37
70198;BME280;57582;-34.876;138.628;2024-03-29T01:51:01;101625;;;29.58;21.69
70198;BME280;57582;-34.876;138.628;2024-03-29T01:54:01;101621;;;29.79;21.39
70198;BME280;57582;-34.876;138.628;2024-03-29T01:57:01;101613;;;29.91;21.38
70198;BME280;57582;-34.876;138.628;2024-03-29T02:00:01;101614;;;30.05;20.96
70198;BME280;57582;-34.876;138.628;2024-03-29T02:03:01;101600;;;30.33;20.85
70198;BME280;57582;-34.876;138.628;2024-03-29T02:06:01;101608;;;30.59;20.48
70198;BME280;57582;-34.876;138.628;2024-03-29T02:09:01;101601;;;30.71;20.31
70198;BME280;57582;-34.876;138.628;2024-03-29T02:12:01;101590;;;30.94;19.95
70198;BME280;57582;-34.876;138.628;2024-03-29T02:15:01;101592;;;30.88;20.27
70198;BME280;57582;-34.876;138.628;2024-03-29T02:18:01;101581;;;30.97;19.59
70198;BME280;57582;-34.876;138.628;2024-03-29T02:21:01;101591;;;30.98;21.84
70198;BME280;57582;-34.876;138.628;2024-03-29T02:24:09;101578;;;30.80;19.95
70198;BME280;57582;-34.876;138.628;2024-03-29T02:27:01;101581;;;31.04;19.95
70198;BME280;57582;-34.876;138.628;2024-03-29T02:30:01;101581;;;30.96;20.16
70198;BME280;57582;-34.876;138.628;2024-03-29T02:33:01;101568;;;30.91;19.52
70198;BME280;57582;-34.876;138.628;2024-03-29T02:36:01;101566;;;30.95;19.74
70198;BME280;57582;-34.876;138.628;2024-03-29T02:39:01;101565;;;30.91;19.33
70198;BME280;57582;-34.876;138.628;2024-03-29T02:42:01;101562;;;31.17;18.91
70198;BME280;57582;-34.876;138.628;2024-03-29T02:45:01;101558;;;30.73;18.60
70198;BME280;57582;-34.876;138.628;2024-03-29T02:48:01;101561;;;30.48;18.93
70198;BME280;57582;-34.876;138.628;2024-03-29T02:51:01;101550;;;30.64;19.60
70198;BME280;57582;-34.876;138.628;2024-03-29T02:54:01;101550;;;30.72;19.02
70198;BME280;57582;-34.876;138.628;2024-03-29T02:57:01;101549;;;30.83;19.04
70198;BME280;57582;-34.876;138.628;2024-03-29T03:00:01;101538;;;31.07;19.45
70198;BME280;57582;-34.876;138.628;2024-03-29T03:03:02;101542;;;31.02;19.10
70198;BME280;57582;-34.876;138.628;2024-03-29T03:06:02;101534;;;31.36;19.26
70198;BME280;57582;-34.876;138.628;2024-03-29T03:09:01;101535;;;31.48;18.29
70198;BME280;57582;-34.876;138.628;2024-03-29T03:12:01;101533;;;31.64;18.79
70198;BME280;57582;-34.876;138.628;2024-03-29T03:15:01;101529;;;31.87;18.53
70198;BME280;57582;-34.876;138.628;2024-03-29T03:18:01;101527;;;32.18;18.30
70198;BME280;57582;-34.876;138.628;2024-03-29T03:21:01;101521;;;32.24;18.06
70198;BME280;57582;-34.876;138.628;2024-03-29T03:24:02;101522;;;32.25;17.94
70198;BME280;57582;-34.876;138.628;2024-03-29T03:27:01;101518;;;32.26;17.64
70198;BME280;57582;-34.876;138.628;2024-03-29T03:30:02;101526;;;32.24;17.93
70198;BME280;57582;-34.876;138.628;2024-03-29T03:33:02;101508;;;32.00;18.14
70198;BME280;57582;-34.876;138.628;2024-03-29T03:36:02;101500;;;32.03;18.53
70198;BME280;57582;-34.876;138.628;2024-03-29T03:39:01;101499;;;32.11;18.24
70198;BME280;57582;-34.876;138.628;2024-03-29T03:42:01;101505;;;32.33;18.36
70198;BME280;57582;-34.876;138.628;2024-03-29T03:45:01;101496;;;32.39;17.87
70198;BME280;57582;-34.876;138.628;2024-03-29T03:48:03;101491;;;32.33;17.29
70198;BME280;57582;-34.876;138.628;2024-03-29T03:51:01;101502;;;32.26;18.16
70198;BME280;57582;-34.876;138.628;2024-03-29T03:54:02;101499;;;32.28;17.28
70198;BME280;57582;-34.876;138.628;2024-03-29T03:57:01;101491;;;32.11;17.91
70198;BME280;57582;-34.876;138.628;2024-03-29T04:00:01;101480;;;32.28;17.99
70198;BME280;57582;-34.876;138.628;2024-03-29T04:03:01;101471;;;32.41;17.24
70198;BME280;57582;-34.876;138.628;2024-03-29T04:06:03;101467;;;32.53;17.81
70198;BME280;57582;-34.876;138.628;2024-03-29T04:09:01;101463;;;32.38;17.67
70198;BME280;57582;-34.876;138.628;2024-03-29T04:12:01;101454;;;32.48;18.31
70198;BME280;57582;-34.876;138.628;2024-03-29T04:15:01;101458;;;31.93;18.35
70198;BME280;57582;-34.876;138.628;2024-03-29T04:18:01;101447;;;32.20;18.13
70198;BME280;57582;-34.876;138.628;2024-03-29T04:21:01;101441;;;32.25;17.73
70198;BME280;57582;-34.876;138.628;2024-03-29T04:24:01;101449;;;32.11;17.72
70198;BME280;57582;-34.876;138.628;2024-03-29T04:27:01;101441;;;32.09;18.00
70198;BME280;57582;-34.876;138.628;2024-03-29T04:30:01;101440;;;32.39;17.76
70198;BME280;57582;-34.876;138.628;2024-03-29T04:33:01;101434;;;32.48;17.82
70198;BME280;57582;-34.876;138.628;2024-03-29T04:36:02;101430;;;32.57;18.00
70198;BME280;57582;-34.876;138.628;2024-03-29T04:39:01;101435;;;32.68;18.05
70198;BME280;57582;-34.876;138.628;2024-03-29T04:42:01;101433;;;32.83;17.89
70198;BME280;57582;-34.876;138.628;2024-03-29T04:45:01;101435;;;32.52;18.33
70198;BME280;57582;-34.876;138.628;2024-03-29T04:48:01;101435;;;32.48;18.05
70198;BME280;57582;-34.876;138.628;2024-03-29T04:51:01;101428;;;32.32;18.82
70198;BME280;57582;-34.876;138.628;2024-03-29T04:54:01;101430;;;32.36;18.59
70198;BME280;57582;-34.876;138.628;2024-03-29T04:57:01;101421;;;32.55;18.34
70198;BME280;57582;-34.876;138.628;2024-03-29T05:00:02;101423;;;32.65;18.81
70198;BME280;57582;-34.876;138.628;2024-03-29T05:03:01;101423;;;32.60;18.80
70198;BME280;57582;-34.876;138.628;2024-03-29T05:06:01;101427;;;32.49;18.46
70198;BME280;57582;-34.876;138.628;2024-03-29T05:09:01;101435;;;32.57;18.40
70198;BME280;57582;-34.876;138.628;2024-03-29T05:12:02;101428;;;32.64;18.10
70198;BME280;57582;-34.876;138.628;2024-03-29T05:15:01;101423;;;32.46;17.70
70198;BME280;57582;-34.876;138.628;2024-03-29T05:18:02;101425;;;32.43;18.66
70198;BME280;57582;-34.876;138.628;2024-03-29T05:21:01;101425;;;32.39;18.10
70198;BME280;57582;-34.876;138.628;2024-03-29T05:24:02;101420;;;32.42;19.33
70198;BME280;57582;-34.876;138.628;2024-03-29T05:27:01;101413;;;32.45;18.60
70198;BME280;57582;-34.876;138.628;2024-03-29T05:30:02;101422;;;32.38;18.97
70198;BME280;57582;-34.876;138.628;2024-03-29T05:33:03;101412;;;32.39;19.08
70198;BME280;57582;-34.876;138.628;2024-03-29T05:36:02;101414;;;32.39;18.82
70198;BME280;57582;-34.876;138.628;2024-03-29T05:39:01;101414;;;32.30;18.25
70198;BME280;57582;-34.876;138.628;2024-03-29T05:42:02;101415;;;32.12;18.35
70198;BME280;57582;-34.876;138.628;2024-03-29T05:45:01;101412;;;32.10;18.09
70198;BME280;57582;-34.876;138.628;2024-03-29T05:48:02;101414;;;32.12;17.84
70198;BME280;57582;-34.876;138.628;2024-03-29T05:51:01;101416;;;32.11;17.82
70198;BME280;57582;-34.876;138.628;2024-03-29T05:54:02;101417;;;32.20;18.13
70198;BME280;57582;-34.876;138.628;2024-03-29T05:57:01;101417;;;32.25;17.79
70198;BME280;57582;-34.876;138.628;2024-03-29T06:00:02;101420;;;32.29;17.99
70198;BME280;57582;-34.876;138.628;2024-03-29T06:03:01;101415;;;32.27;17.66
70198;BME280;57582;-34.876;138.628;2024-03-29T06:06:02;101411;;;32.28;17.87
70198;BME280;57582;-34.876;138.628;2024-03-29T06:09:01;101411;;;32.40;17.72
70198;BME280;57582;-34.876;138.628;2024-03-29T06:12:02;101412;;;32.34;17.15
70198;BME280;57582;-34.876;138.628;2024-03-29T06:15:02;101413;;;32.43;16.56
70198;BME280;57582;-34.876;138.628;2024-03-29T06:18:02;101412;;;32.50;18.01
70198;BME280;57582;-34.876;138.628;2024-03-29T06:21:01;101412;;;32.69;17.78
70198;BME280;57582;-34.876;138.628;2024-03-29T06:24:02;101400;;;32.74;17.30
70198;BME280;57582;-34.876;138.628;2024-03-29T06:27:01;101413;;;32.67;16.89
70198;BME280;57582;-34.876;138.628;2024-03-29T06:30:02;101405;;;32.79;16.07
70198;BME280;57582;-34.876;138.628;2024-03-29T06:33:01;101398;;;32.80;16.80
70198;BME280;57582;-34.876;138.628;2024-03-29T06:36:02;101400;;;32.89;16.62
70198;BME280;57582;-34.876;138.628;2024-03-29T06:39:01;101390;;;32.79;16.60
70198;BME280;57582;-34.876;138.628;2024-03-29T06:42:02;101397;;;32.78;17.11
70198;BME280;57582;-34.876;138.628;2024-03-29T06:45:01;101391;;;32.92;16.90
70198;BME280;57582;-34.876;138.628;2024-03-29T06:48:02;101394;;;32.94;16.21
70198;BME280;57582;-34.876;138.628;2024-03-29T06:51:02;101386;;;32.86;16.14
70198;BME280;57582;-34.876;138.628;2024-03-29T06:54:02;101382;;;32.82;16.50
70198;BME280;57582;-34.876;138.628;2024-03-29T06:57:01;101391;;;32.89;16.68
70198;BME280;57582;-34.876;138.628;2024-03-29T07:00:02;101395;;;32.81;16.12
70198;BME280;57582;-34.876;138.628;2024-03-29T07:03:01;101384;;;32.82;16.19
70198;BME280;57582;-34.876;138.628;2024-03-29T07:06:02;101388;;;32.79;16.29
70198;BME280;57582;-34.876;138.628;2024-03-29T07:09:01;101393;;;32.70;16.48
70198;BME280;57582;-34.876;138.628;2024-03-29T07:12:02;101390;;;32.80;17.19
70198;BME280;57582;-34.876;138.628;2024-03-29T07:15:01;101385;;;32.90;16.56
70198;BME280;57582;-34.876;138.628;2024-03-29T07:18:02;101382;;;32.87;16.16
70198;BME280;57582;-34.876;138.628;2024-03-29T07:21:01;101381;;;32.81;16.46
70198;BME280;57582;-34.876;138.628;2024-03-29T07:24:02;101386;;;32.81;16.61
70198;BME280;57582;-34.876;138.628;2024-03-29T07:27:01;101388;;;32.84;16.47
70198;BME280;57582;-34.876;138.628;2024-03-29T07:30:02;101390;;;32.87;16.38
70198;BME280;57582;-34.876;138.628;2024-03-29T07:33:01;101389;;;32.80;15.89
70198;BME280;57582;-34.876;138.628;2024-03-29T07:36:02;101390;;;32.78;16.52
70198;BME280;57582;-34.876;138.628;2024-03-29T07:39:02;101387;;;32.78;16.73
70198;BME280;57582;-34.876;138.628;2024-03-29T07:42:02;101395;;;32.71;16.30
70198;BME280;57582;-34.876;138.628;2024-03-29T07:45:01;101394;;;32.59;16.77
70198;BME280;57582;-34.876;138.628;2024-03-29T07:48:02;101395;;;32.51;16.78
70198;BME280;57582;-34.876;138.628;2024-03-29T07:51:01;101392;;;32.46;17.25
70198;BME280;57582;-34.876;138.628;2024-03-29T07:54:02;101387;;;32.37;16.86
70198;BME280;57582;-34.876;138.628;2024-03-29T07:57:01;101396;;;32.26;17.25
70198;BME280;57582;-34.876;138.628;2024-03-29T08:00:02;101399;;;32.16;16.85
70198;BME280;57582;-34.876;138.628;2024-03-29T08:03:01;101407;;;31.99;17.04
70198;BME280;57582;-34.876;138.628;2024-03-29T08:06:02;101409;;;31.87;17.37
70198;BME280;57582;-34.876;138.628;2024-03-29T08:09:02;101414;;;31.76;17.50
70198;BME280;57582;-34.876;138.628;2024-03-29T08:12:02;101417;;;31.65;18.03
70198;BME280;57582;-34.876;138.628;2024-03-29T08:15:01;101407;;;31.48;18.24
70198;BME280;57582;-34.876;138.628;2024-03-29T08:18:02;101410;;;31.33;18.57
70198;BME280;57582;-34.876;138.628;2024-03-29T08:21:02;101408;;;31.18;18.83
70198;BME280;57582;-34.876;138.628;2024-03-29T08:24:02;101409;;;31.02;18.95
70198;BME280;57582;-34.876;138.628;2024-03-29T08:27:02;101406;;;30.85;19.10
70198;BME280;57582;-34.876;138.628;2024-03-29T08:30:02;101418;;;30.73;19.36
70198;BME280;57582;-34.876;138.628;2024-03-29T08:33:02;101417;;;30.56;20.02
70198;BME280;57582;-34.876;138.628;2024-03-29T08:36:02;101419;;;30.41;20.39
70198;BME280;57582;-34.876;138.628;2024-03-29T08:39:02;101424;;;30.24;19.83
70198;BME280;57582;-34.876;138.628;2024-03-29T08:42:02;101432;;;30.05;20.73
70198;BME280;57582;-34.876;138.628;2024-03-29T08:45:02;101430;;;29.87;21.45
70198;BME280;57582;-34.876;138.628;2024-03-29T08:48:02;101443;;;29.68;21.80
70198;BME280;57582;-34.876;138.628;2024-03-29T08:51:02;101442;;;29.51;22.19
70198;BME280;57582;-34.876;138.628;2024-03-29T08:54:02;101446;;;29.26;21.90
70198;BME280;57582;-34.876;138.628;2024-03-29T08:57:02;101450;;;28.92;22.21
70198;BME280;57582;-34.876;138.628;2024-03-29T09:00:02;101458;;;28.70;22.62
70198;BME280;57582;-34.876;138.628;2024-03-29T09:03:02;101468;;;28.56;22.86
70198;BME280;57582;-34.876;138.628;2024-03-29T09:06:02;101468;;;28.37;22.56
70198;BME280;57582;-34.876;138.628;2024-03-29T09:09:02;101468;;;28.21;22.64
70198;BME280;57582;-34.876;138.628;2024-03-29T09:12:02;101474;;;28.17;22.40
70198;BME280;57582;-34.876;138.628;2024-03-29T09:15:02;101477;;;28.21;22.50
70198;BME280;57582;-34.876;138.628;2024-03-29T09:18:02;101485;;;28.23;22.84
70198;BME280;57582;-34.876;138.628;2024-03-29T09:21:02;101481;;;28.27;22.89
70198;BME280;57582;-34.876;138.628;2024-03-29T09:24:02;101497;;;28.30;23.02
70198;BME280;57582;-34.876;138.628;2024-03-29T09:27:02;101506;;;28.32;22.60
70198;BME280;57582;-34.876;138.628;2024-03-29T09:30:03;101509;;;28.29;22.87
70198;BME280;57582;-34.876;138.628;2024-03-29T09:33:02;101507;;;28.28;23.11
70198;BME280;57582;-34.876;138.628;2024-03-29T09:36:02;101506;;;28.27;23.25
70198;BME280;57582;-34.876;138.628;2024-03-29T09:39:02;101515;;;28.23;23.54
70198;BME280;57582;-34.876;138.628;2024-03-29T09:42:03;101515;;;27.76;22.21
70198;BME280;57582;-34.876;138.628;2024-03-29T09:45:02;101512;;;27.52;22.12
70198;BME280;57582;-34.876;138.628;2024-03-29T09:48:04;101520;;;26.98;22.41
70198;BME280;57582;-34.876;138.628;2024-03-29T09:51:04;101511;;;26.98;22.45
70198;BME280;57582;-34.876;138.628;2024-03-29T09:54:02;101510;;;26.84;22.48
70198;BME280;57582;-34.876;138.628;2024-03-29T09:57:02;101516;;;26.84;22.54
70198;BME280;57582;-34.876;138.628;2024-03-29T10:00:02;101525;;;26.80;22.67
70198;BME280;57582;-34.876;138.628;2024-03-29T10:03:02;101522;;;26.70;22.61
70198;BME280;57582;-34.876;138.628;2024-03-29T10:06:02;101527;;;26.54;22.78
70198;BME280;57582;-34.876;138.628;2024-03-29T10:09:02;101537;;;26.38;23.02
70198;BME280;57582;-34.876;138.628;2024-03-29T10:12:02;101529;;;26.51;23.09
70198;BME280;57582;-34.876;138.628;2024-03-29T10:15:02;101534;;;26.41;23.27
70198;BME280;57582;-34.876;138.628;2024-03-29T10:18:02;101529;;;26.48;23.15
70198;BME280;57582;-34.876;138.628;2024-03-29T10:21:02;101535;;;26.62;23.13
70198;BME280;57582;-34.876;138.628;2024-03-29T10:24:11;101541;;;26.60;23.13
70198;BME280;57582;-34.876;138.628;2024-03-29T10:27:02;101542;;;26.67;23.12
70198;BME280;57582;-34.876;138.628;2024-03-29T10:30:02;101543;;;26.76;23.04
70198;BME280;57582;-34.876;138.628;2024-03-29T10:33:02;101549;;;26.84;23.18
70198;BME280;57582;-34.876;138.628;2024-03-29T10:36:02;101550;;;26.88;23.30
70198;BME280;57582;-34.876;138.628;2024-03-29T10:39:02;101554;;;26.94;23.54
70198;BME280;57582;-34.876;138.628;2024-03-29T10:42:02;101552;;;26.98;23.76
70198;BME280;57582;-34.876;138.628;2024-03-29T10:45:02;101553;;;26.98;23.90
70198;BME280;57582;-34.876;138.628;2024-03-29T10:48:03;101556;;;26.95;23.55
70198;BME280;57582;-34.876;138.628;2024-03-29T10:51:02;101559;;;26.97;23.68
70198;BME280;57582;-34.876;138.628;2024-03-29T10:54:02;101555;;;26.95;23.83
70198;BME280;57582;-34.876;138.628;2024-03-29T10:57:04;101563;;;26.96;23.37
70198;BME280;57582;-34.876;138.628;2024-03-29T11:03:09;101567;;;26.85;23.41
70198;BME280;57582;-34.876;138.628;2024-03-29T11:06:03;101562;;;26.79;23.41
70198;BME280;57582;-34.876;138.628;2024-03-29T11:09:02;101569;;;26.75;23.78
70198;BME280;57582;-34.876;138.628;2024-03-29T11:12:02;101580;;;26.72;24.28
70198;BME280;57582;-34.876;138.628;2024-03-29T11:15:02;101583;;;26.62;24.38
70198;BME280;57582;-34.876;138.628;2024-03-29T11:18:02;101585;;;26.45;24.81
70198;BME280;57582;-34.876;138.628;2024-03-29T11:21:02;101589;;;26.32;25.12
70198;BME280;57582;-34.876;138.628;2024-03-29T11:24:03;101590;;;26.24;24.45
70198;BME280;57582;-34.876;138.628;2024-03-29T11:27:09;101597;;;25.92;24.70
70198;BME280;57582;-34.876;138.628;2024-03-29T11:30:02;101599;;;25.82;24.43
70198;BME280;57582;-34.876;138.628;2024-03-29T11:33:02;101596;;;25.65;24.43
70198;BME280;57582;-34.876;138.628;2024-03-29T11:39:02;101600;;;25.26;24.61
70198;BME280;57582;-34.876;138.628;2024-03-29T11:42:02;101601;;;25.33;24.89
70198;BME280;57582;-34.876;138.628;2024-03-29T11:45:02;101608;;;25.42;25.09
70198;BME280;57582;-34.876;138.628;2024-03-29T11:48:03;101602;;;25.40;24.52
70198;BME280;57582;-34.876;138.628;2024-03-29T11:51:02;101599;;;24.99;24.53
70198;BME280;57582;-34.876;138.628;2024-03-29T11:54:03;101593;;;24.93;24.89
70198;BME280;57582;-34.876;138.628;2024-03-29T11:57:02;101588;;;24.92;24.99
70198;BME280;57582;-34.876;138.628;2024-03-29T12:00:02;101590;;;25.01;24.88
70198;BME280;57582;-34.876;138.628;2024-03-29T12:03:02;101583;;;25.09;24.63
70198;BME280;57582;-34.876;138.628;2024-03-29T12:06:02;101585;;;25.19;24.67
70198;BME280;57582;-34.876;138.628;2024-03-29T12:09:02;101589;;;25.27;24.99
70198;BME280;57582;-34.876;138.628;2024-03-29T12:12:05;101589;;;25.39;24.78
70198;BME280;57582;-34.876;138.628;2024-03-29T12:15:02;101591;;;25.50;23.99
70198;BME280;57582;-34.876;138.628;2024-03-29T12:18:04;101586;;;25.62;24.00
70198;BME280;57582;-34.876;138.628;2024-03-29T12:21:02;101578;;;25.48;23.88
70198;BME280;57582;-34.876;138.628;2024-03-29T12:24:02;101580;;;25.63;23.95
70198;BME280;57582;-34.876;138.628;2024-03-29T12:27:02;101586;;;25.86;24.60
70198;BME280;57582;-34.876;138.628;2024-03-29T12:30:02;101582;;;26.01;24.68
70198;BME280;57582;-34.876;138.628;2024-03-29T12:33:04;101584;;;26.08;24.52
70198;BME280;57582;-34.876;138.628;2024-03-29T12:36:02;101581;;;26.05;23.79
70198;BME280;57582;-34.876;138.628;2024-03-29T12:39:02;101584;;;25.83;24.07
70198;BME280;57582;-34.876;138.628;2024-03-29T12:42:02;101587;;;25.83;24.57
70198;BME280;57582;-34.876;138.628;2024-03-29T12:45:02;101585;;;25.78;24.50
70198;BME280;57582;-34.876;138.628;2024-03-29T12:48:02;101586;;;25.84;24.78
70198;BME280;57582;-34.876;138.628;2024-03-29T12:51:02;101586;;;25.84;25.21
70198;BME280;57582;-34.876;138.628;2024-03-29T12:54:02;101585;;;25.76;24.79
70198;BME280;57582;-34.876;138.628;2024-03-29T12:57:02;101586;;;25.65;24.65
70198;BME280;57582;-34.876;138.628;2024-03-29T13:00:03;101591;;;25.72;24.64
70198;BME280;57582;-34.876;138.628;2024-03-29T13:03:02;101590;;;25.74;24.77
70198;BME280;57582;-34.876;138.628;2024-03-29T13:06:02;101584;;;25.56;24.43
70198;BME280;57582;-34.876;138.628;2024-03-29T13:09:02;101589;;;25.53;24.83
70198;BME280;57582;-34.876;138.628;2024-03-29T13:12:02;101587;;;25.48;24.71
70198;BME280;57582;-34.876;138.628;2024-03-29T13:15:02;101585;;;25.46;24.83
70198;BME280;57582;-34.876;138.628;2024-03-29T13:18:03;101581;;;25.41;24.70
70198;BME280;57582;-34.876;138.628;2024-03-29T13:21:02;101579;;;25.13;25.01
70198;BME280;57582;-34.876;138.628;2024-03-29T13:24:03;101580;;;25.07;25.10
70198;BME280;57582;-34.876;138.628;2024-03-29T13:27:02;101573;;;24.88;25.61
70198;BME280;57582;-34.876;138.628;2024-03-29T13:30:03;101562;;;24.57;25.75
70198;BME280;57582;-34.876;138.628;2024-03-29T13:33:02;101562;;;24.30;26.22
70198;BME280;57582;-34.876;138.628;2024-03-29T13:36:02;101562;;;24.20;26.43
70198;BME280;57582;-34.876;138.628;2024-03-29T13:39:02;101561;;;24.10;26.62
70198;BME280;57582;-34.876;138.628;2024-03-29T13:42:02;101558;;;24.01;26.74
70198;BME280;57582;-34.876;138.628;2024-03-29T13:45:03;101555;;;23.91;27.01
70198;BME280;57582;-34.876;138.628;2024-03-29T13:48:03;101547;;;23.78;27.24
70198;BME280;57582;-34.876;138.628;2024-03-29T13:51:02;101538;;;23.66;27.49
70198;BME280;57582;-34.876;138.628;2024-03-29T13:54:02;101543;;;23.82;27.51
70198;BME280;57582;-34.876;138.628;2024-03-29T13:57:02;101541;;;24.04;27.40
70198;BME280;57582;-34.876;138.628;2024-03-29T14:00:02;101535;;;24.14;27.16
70198;BME280;57582;-34.876;138.628;2024-03-29T14:03:02;101540;;;24.00;27.30
70198;BME280;57582;-34.876;138.628;2024-03-29T14:06:02;101533;;;23.83;27.59
70198;BME280;57582;-34.876;138.628;2024-03-29T14:09:02;101542;;;23.91;27.50
70198;BME280;57582;-34.876;138.628;2024-03-29T14:12:02;101525;;;23.68;27.79
70198;BME280;57582;-34.876;138.628;2024-03-29T14:15:02;101532;;;23.69;27.99
70198;BME280;57582;-34.876;138.628;2024-03-29T14:18:02;101529;;;23.59;28.19
70198;BME280;57582;-34.876;138.628;2024-03-29T14:21:02;101535;;;23.51;28.39
70198;BME280;57582;-34.876;138.628;2024-03-29T14:24:02;101534;;;23.37;28.62
70198;BME280;57582;-34.876;138.628;2024-03-29T14:27:03;101540;;;23.32;28.90
70198;BME280;57582;-34.876;138.628;2024-03-29T14:30:03;101533;;;23.45;28.71
70198;BME280;57582;-34.876;138.628;2024-03-29T14:33:02;101543;;;23.64;28.60
70198;BME280;57582;-34.876;138.628;2024-03-29T14:36:03;101530;;;23.75;28.50
70198;BME280;57582;-34.876;138.628;2024-03-29T14:39:02;101536;;;23.98;28.51
70198;BME280;57582;-34.876;138.628;2024-03-29T14:42:03;101539;;;24.18;28.39
70198;BME280;57582;-34.876;138.628;2024-03-29T14:45:02;101547;;;24.34;28.36
70198;BME280;57582;-34.876;138.628;2024-03-29T14:48:03;101547;;;24.43;28.48
70198;BME280;57582;-34.876;138.628;2024-03-29T14:51:02;101536;;;24.49;28.29
70198;BME280;57582;-34.876;138.628;2024-03-29T14:54:03;101546;;;24.53;28.28
70198;BME280;57582;-34.876;138.628;2024-03-29T14:57:02;101546;;;24.52;28.37
70198;BME280;57582;-34.876;138.628;2024-03-29T15:00:03;101546;;;24.55;28.31
70198;BME280;57582;-34.876;138.628;2024-03-29T15:03:02;101544;;;24.51;28.13
70198;BME280;57582;-34.876;138.628;2024-03-29T15:06:03;101545;;;24.10;28.53
70198;BME280;57582;-34.876;138.628;2024-03-29T15:09:02;101550;;;23.50;29.34
70198;BME280;57582;-34.876;138.628;2024-03-29T15:12:03;101548;;;23.16;29.84
70198;BME280;57582;-34.876;138.628;2024-03-29T15:15:02;101555;;;23.18;29.70
70198;BME280;57582;-34.876;138.628;2024-03-29T15:18:03;101546;;;23.15;29.71
70198;BME280;57582;-34.876;138.628;2024-03-29T15:21:02;101544;;;23.30;29.66
70198;BME280;57582;-34.876;138.628;2024-03-29T15:24:03;101545;;;23.52;29.37
70198;BME280;57582;-34.876;138.628;2024-03-29T15:27:02;101546;;;23.69;29.12
70198;BME280;57582;-34.876;138.628;2024-03-29T15:30:03;101544;;;23.86;28.92
70198;BME280;57582;-34.876;138.628;2024-03-29T15:33:02;101544;;;23.92;28.79
70198;BME280;57582;-34.876;138.628;2024-03-29T15:36:03;101546;;;24.04;28.64
70198;BME280;57582;-34.876;138.628;2024-03-29T15:39:03;101539;;;24.13;28.34
70198;BME280;57582;-34.876;138.628;2024-03-29T15:42:03;101544;;;24.22;28.16
70198;BME280;57582;-34.876;138.628;2024-03-29T15:45:02;101550;;;24.28;28.23